CheckWX is a tool to help pilots better visualize weather data.  It is not intended as a substitute for an official pre-flight weather briefing.

02:52:35 UTC

KGIF METAR
Winter Haven's Gilbert Airport
Winter Haven, Florida, USA
Current

60 mins ago

KGIF 240153Z AUTO 09010KT 10SM CLR 19/12 A3023 RMK AO2 SLP234 T01940117
Observed
Mar-24 @ 01:53 UTC
Wind
  • 090° at 10 KTS
Visibility
10 SM
Flight Rules
VFR
Cloud Levels
  • Clear skies
Temperature
19°C / 66°F
Dewpoint
12°C / 54°F
Humidity
64%
Altimeter
30.23" Hg
Pressure
1023.4 hPa
Previous

2 hours ago

KGIF 240053Z AUTO 00000KT 10SM CLR 21/09 A3021 RMK AO2 SLP227 T02060094
Observed
Mar-24 @ 00:53 UTC
Visibility
10 SM
Flight Rules
VFR
Cloud Levels
  • Clear skies
Temperature
21°C / 70°F
Dewpoint
C / 48°F
Humidity
46%
Altimeter
30.21" Hg
Pressure
1022.7 hPa
Previous

3 hours ago

KGIF 232353Z AUTO 00000KT 10SM CLR 23/07 A3019 RMK AO2 SLP222 T02280072 10267 20228 53007
Observed
Mar-23 @ 23:53 UTC
Visibility
10 SM
Flight Rules
VFR
Cloud Levels
  • Clear skies
Temperature
23°C / 73°F
Dewpoint
C / 45°F
Humidity
36%
Altimeter
30.19" Hg
Pressure
1022.2 hPa